CheckWX is a tool to help pilots better visualize weather data.  It is not intended as a substitute for an official pre-flight weather briefing.

03:27:18 UTC

LDSP TAF
Split Airport
Split, Croatia
TAF LDSP 172325Z 1800/1900 VRB02KT CAVOK TX17/1812Z TN05/1804Z BECMG 1809/1811 30010KT BECMG 1815/1817 35007KT

Feb-18@
00:00 UTC

Feb-18 @ 00:00 UTC

Feb-18@
09:00 UTC

Feb-18 @ 09:00 UTC

TAF LDSP 172325Z 1800/1900 VRB02KT CAVOK TX17/1812Z TN05/1804Z
Wind
  • Variable at 2 KTS
Cloud Levels
  • No significant clouds

Feb-18@
09:00 UTC

Feb-18 @ 09:00 UTC

Feb-18@
15:00 UTC

Feb-18 @ 15:00 UTC

BECMG 1809/1811 30010KT

Becoming

Becoming Conditions expected by Tue, Feb 18, 2020 @ 11:00 UTC

Wind
  • 300° at 10 KTS
Cloud Levels
  • No significant clouds

Feb-18@
15:00 UTC

Feb-18 @ 15:00 UTC

Feb-19@
00:00 UTC

Feb-19 @ 00:00 UTC

BECMG 1815/1817 35007KT

Becoming

Becoming Conditions expected by Tue, Feb 18, 2020 @ 17:00 UTC

Wind
  • 350° at 7 KTS
Cloud Levels
  • No significant clouds